Time;durP1;ratioP1;P1;durP2;ratioP2;P2;SDS_P1;SDS_P2;PMS_P1;PMS_P2;Temp;Humidity;BMP_temperature;BMP_pressure;BME280_temperature;BME280_humidity;BME280_pressure;Samples;Min_cycle;Max_cycle;Signal;HPM_P1;HPM_P2
2022/08/20 00:02:03;;;;;;;;;2.00;0.00;;;;;;;;5076786;27;45466;-75
2022/08/20 00:04:29;;;;;;;;;2.00;0.33;;;;;;;;5076702;27;45467;-75
2022/08/20 00:06:54;;;;;;;;;2.00;1.00;;;;;;;;5077054;28;45478;-75
2022/08/20 00:09:19;;;;;;;;;1.00;1.00;;;;;;;;5075355;27;45216;-76
2022/08/20 00:11:45;;;;;;;;;1.00;1.00;;;;;;;;5076305;27;45344;-75
2022/08/20 00:14:11;;;;;;;;;0.33;0.33;;;;;;;;5076575;27;45339;-75
2022/08/20 00:16:37;;;;;;;;;0.67;0.67;;;;;;;;5077035;27;45516;-74
2022/08/20 00:19:04;;;;;;;;;1.00;1.00;;;;;;;;5076677;27;45486;-74
2022/08/20 00:21:30;;;;;;;;;0.67;0.67;;;;;;;;5076215;27;45598;-75
2022/08/20 00:23:55;;;;;;;;;0.00;0.00;;;;;;;;5076473;28;45329;-75
2022/08/20 00:26:21;;;;;;;;;1.67;1.67;;;;;;;;5076378;27;45367;-75
2022/08/20 00:28:47;;;;;;;;;0.00;0.00;;;;;;;;5076539;28;45485;-75
2022/08/20 00:31:13;;;;;;;;;0.00;0.00;;;;;;;;5076257;28;46995;-76
2022/08/20 00:33:39;;;;;;;;;0.00;0.00;;;;;;;;5076025;28;45526;-75
2022/08/20 00:36:09;;;;;;;;;0.00;0.00;;;;;;;;5076360;27;45708;-75
2022/08/20 00:38:38;;;;;;;;;0.00;0.00;;;;;;;;5076137;27;45472;-74
2022/08/20 00:41:03;;;;;;;;;0.33;0.33;;;;;;;;5075815;28;46131;-74
2022/08/20 00:43:28;;;;;;;;;0.67;0.33;;;;;;;;5076089;27;45222;-75
2022/08/20 00:45:56;;;;;;;;;0.67;0.67;;;;;;;;5076295;28;45293;-75
2022/08/20 00:48:22;;;;;;;;;0.00;0.00;;;;;;;;5076042;28;45477;-75
2022/08/20 00:50:48;;;;;;;;;0.33;0.33;;;;;;;;5076139;27;46167;-74
2022/08/20 00:53:14;;;;;;;;;0.00;0.00;;;;;;;;5075865;27;45295;-74
2022/08/20 00:55:40;;;;;;;;;0.33;0.33;;;;;;;;5075938;27;45318;-74
2022/08/20 00:58:08;;;;;;;;;0.00;0.00;;;;;;;;5076055;27;45347;-74
2022/08/20 01:00:44;;;;;;;;;1.00;1.00;;;;;;;;5075679;27;47026;-75
2022/08/20 01:03:11;;;;;;;;;0.00;0.00;;;;;;;;5075787;27;45479;-74
2022/08/20 01:05:37;;;;;;;;;1.00;0.00;;;;;;;;5075915;27;45398;-74
2022/08/20 01:08:02;;;;;;;;;0.00;0.00;;;;;;;;5075994;28;45392;-74
2022/08/20 01:10:30;;;;;;;;;1.00;1.00;;;;;;;;5075426;27;45340;-74
2022/08/20 01:12:57;;;;;;;;;1.00;1.00;;;;;;;;5076006;28;45470;-74
2022/08/20 01:15:25;;;;;;;;;0.00;0.00;;;;;;;;5075588;28;45367;-74
2022/08/20 01:17:53;;;;;;;;;0.00;0.00;;;;;;;;5075418;27;45418;-74
2022/08/20 01:20:21;;;;;;;;;0.00;0.00;;;;;;;;5075057;27;46141;-75
2022/08/20 01:25:52;;;;;;;;;1.00;1.00;;;;;;;;5072780;28;45752;-75
2022/08/20 01:28:20;;;;;;;;;0.67;0.00;;;;;;;;5075359;28;45526;-74
2022/08/20 01:30:45;;;;;;;;;1.00;1.00;;;;;;;;5075474;28;47753;-74
2022/08/20 01:33:10;;;;;;;;;0.33;0.33;;;;;;;;5074719;27;45360;-75
2022/08/20 01:35:37;;;;;;;;;3.00;1.00;;;;;;;;5075488;28;45336;-75
2022/08/20 01:38:03;;;;;;;;;0.00;0.00;;;;;;;;5075906;27;45284;-74
2022/08/20 01:40:38;;;;;;;;;0.33;0.33;;;;;;;;5074328;27;46054;-75
2022/08/20 01:43:05;;;;;;;;;1.00;1.00;;;;;;;;5075446;28;45455;-74
2022/08/20 01:45:30;;;;;;;;;1.00;1.00;;;;;;;;5057164;28;45497;-76
2022/08/20 01:47:56;;;;;;;;;0.00;0.00;;;;;;;;5075489;28;45557;-75
2022/08/20 01:50:23;;;;;;;;;0.00;0.00;;;;;;;;5075317;28;45525;-75
2022/08/20 01:53:07;;;;;;;;;1.00;1.00;;;;;;;;5075565;28;45395;-75
2022/08/20 01:55:32;;;;;;;;;0.50;0.50;;;;;;;;5075214;27;45395;-75
2022/08/20 01:57:58;;;;;;;;;0.00;0.00;;;;;;;;5075043;28;45507;-75
2022/08/20 02:00:24;;;;;;;;;0.00;0.00;;;;;;;;5075258;27;46293;-74
2022/08/20 02:02:49;;;;;;;;;0.00;0.00;;;;;;;;5087517;27;45347;-74
2022/08/20 02:05:15;;;;;;;;;0.00;0.00;;;;;;;;5096013;27;45316;-75
2022/08/20 02:07:40;;;;;;;;;1.00;0.00;;;;;;;;5095579;27;45525;-75
2022/08/20 02:10:06;;;;;;;;;2.33;0.33;;;;;;;;5095748;27;46228;-75
2022/08/20 02:12:32;;;;;;;;;1.33;1.00;;;;;;;;5095294;27;45228;-74
2022/08/20 02:14:57;;;;;;;;;0.00;0.00;;;;;;;;5095656;27;45220;-76
2022/08/20 02:17:24;;;;;;;;;2.67;0.00;;;;;;;;5095830;27;45359;-75
2022/08/20 02:19:54;;;;;;;;;1.00;1.00;;;;;;;;5095209;27;47149;-75
2022/08/20 02:22:19;;;;;;;;;1.00;1.00;;;;;;;;5094889;27;45628;-75
2022/08/20 02:24:44;;;;;;;;;1.00;1.00;;;;;;;;5095257;27;45527;-75
2022/08/20 02:27:10;;;;;;;;;1.00;1.00;;;;;;;;5095463;27;45338;-75
2022/08/20 02:29:35;;;;;;;;;1.00;1.00;;;;;;;;5095018;27;46176;-75
2022/08/20 02:32:01;;;;;;;;;3.00;1.00;;;;;;;;5095056;27;45698;-75
2022/08/20 02:34:26;;;;;;;;;2.33;0.33;;;;;;;;5098633;27;45306;-74
2022/08/20 02:36:51;;;;;;;;;0.67;0.67;;;;;;;;5098060;27;45294;-75
2022/08/20 02:39:16;;;;;;;;;2.33;1.33;;;;;;;;5098524;27;45375;-75
2022/08/20 02:41:42;;;;;;;;;2.00;1.00;;;;;;;;5098398;27;45483;-75
2022/08/20 02:44:07;;;;;;;;;0.00;0.00;;;;;;;;5098654;27;45563;-74
2022/08/20 02:46:33;;;;;;;;;0.33;0.33;;;;;;;;5098730;27;45345;-76
2022/08/20 02:48:58;;;;;;;;;0.00;0.00;;;;;;;;5098401;27;46430;-74
2022/08/20 02:51:24;;;;;;;;;2.33;1.00;;;;;;;;5098203;27;45558;-75
2022/08/20 02:53:49;;;;;;;;;0.00;0.00;;;;;;;;5098404;27;45341;-75
2022/08/20 02:56:14;;;;;;;;;0.00;0.00;;;;;;;;5098463;27;45372;-75
2022/08/20 02:58:40;;;;;;;;;1.33;1.00;;;;;;;;5098327;27;46239;-74
2022/08/20 03:01:07;;;;;;;;;0.67;0.67;;;;;;;;5098390;27;45264;-76
2022/08/20 03:03:32;;;;;;;;;0.67;0.67;;;;;;;;5080004;27;45388;-74
2022/08/20 03:05:58;;;;;;;;;0.00;0.00;;;;;;;;5059172;28;45692;-75
2022/08/20 03:08:23;;;;;;;;;0.00;0.00;;;;;;;;5077524;27;46061;-74
2022/08/20 03:10:50;;;;;;;;;0.00;0.00;;;;;;;;5077816;27;45276;-74
2022/08/20 03:13:15;;;;;;;;;1.00;0.00;;;;;;;;5077990;27;45294;-75
2022/08/20 03:15:42;;;;;;;;;1.00;1.00;;;;;;;;5077020;27;45309;-74
2022/08/20 03:18:07;;;;;;;;;1.00;1.00;;;;;;;;5077578;27;46229;-74
2022/08/20 03:20:33;;;;;;;;;1.00;1.00;;;;;;;;5077006;27;45306;-75
2022/08/20 03:22:58;;;;;;;;;2.67;0.00;;;;;;;;5077656;27;45312;-75
2022/08/20 03:25:24;;;;;;;;;1.67;0.00;;;;;;;;5077595;27;45452;-75
2022/08/20 03:27:49;;;;;;;;;1.33;0.33;;;;;;;;5077588;27;45418;-75
2022/08/20 03:30:15;;;;;;;;;2.00;0.00;;;;;;;;5077445;27;45397;-75
2022/08/20 03:32:41;;;;;;;;;1.00;1.00;;;;;;;;5077571;27;45557;-75
2022/08/20 03:35:07;;;;;;;;;1.67;1.67;;;;;;;;5076673;28;45379;-75
2022/08/20 03:37:33;;;;;;;;;1.00;1.00;;;;;;;;5077261;27;46233;-75
2022/08/20 03:39:59;;;;;;;;;0.33;0.33;;;;;;;;5076766;27;45558;-75
2022/08/20 03:42:24;;;;;;;;;0.00;0.00;;;;;;;;5076899;27;45412;-75
2022/08/20 03:44:50;;;;;;;;;1.00;1.00;;;;;;;;5077309;27;45515;-74
2022/08/20 03:47:15;;;;;;;;;0.00;0.00;;;;;;;;5076361;27;45849;-75
2022/08/20 03:49:40;;;;;;;;;0.00;0.00;;;;;;;;5076904;27;45328;-75
2022/08/20 03:52:05;;;;;;;;;1.33;0.33;;;;;;;;5077237;27;45292;-75
2022/08/20 03:54:31;;;;;;;;;0.00;0.00;;;;;;;;5077667;28;45321;-74
2022/08/20 03:56:56;;;;;;;;;1.00;0.00;;;;;;;;5076472;27;46116;-75
2022/08/20 03:59:21;;;;;;;;;0.00;0.00;;;;;;;;5077254;27;45270;-75
2022/08/20 04:01:47;;;;;;;;;1.67;0.00;;;;;;;;5062382;27;45540;-74
2022/08/20 04:04:12;;;;;;;;;2.00;2.00;;;;;;;;5096688;27;45347;-75
2022/08/20 04:06:38;;;;;;;;;1.00;0.00;;;;;;;;5097435;27;45240;-75
2022/08/20 04:09:03;;;;;;;;;0.33;0.33;;;;;;;;5095953;27;45767;-74
2022/08/20 04:11:28;;;;;;;;;0.00;0.00;;;;;;;;5097603;27;45395;-75
2022/08/20 04:13:53;;;;;;;;;0.00;0.00;;;;;;;;5096886;27;45443;-75
2022/08/20 04:16:19;;;;;;;;;1.00;1.00;;;;;;;;5097025;27;45251;-74
2022/08/20 04:18:44;;;;;;;;;0.00;0.00;;;;;;;;5096815;27;45324;-75
2022/08/20 04:21:09;;;;;;;;;3.00;1.00;;;;;;;;5096740;27;45430;-75
2022/08/20 04:23:34;;;;;;;;;1.00;1.00;;;;;;;;5097396;27;45280;-75
2022/08/20 04:26:00;;;;;;;;;0.33;0.33;;;;;;;;5097088;27;46080;-75
2022/08/20 04:28:29;;;;;;;;;1.00;1.00;;;;;;;;5096649;27;45322;-74
2022/08/20 04:30:55;;;;;;;;;2.33;1.00;;;;;;;;5097119;27;45334;-74
2022/08/20 04:33:21;;;;;;;;;1.00;0.00;;;;;;;;5096350;27;45451;-74
2022/08/20 04:35:46;;;;;;;;;0.00;0.00;;;;;;;;5096344;27;45301;-75
2022/08/20 04:38:14;;;;;;;;;0.33;0.33;;;;;;;;5096713;27;45355;-75
2022/08/20 04:40:57;;;;;;;;;2.00;2.00;;;;;;;;5097070;27;45499;-75
2022/08/20 04:43:23;;;;;;;;;0.33;0.33;;;;;;;;5096402;27;45303;-74
2022/08/20 04:45:50;;;;;;;;;2.00;1.00;;;;;;;;5096289;27;46131;-75
2022/08/20 04:48:17;;;;;;;;;1.67;0.67;;;;;;;;5096321;27;45402;-76
2022/08/20 04:50:43;;;;;;;;;0.00;0.00;;;;;;;;5096587;27;45460;-75
2022/08/20 04:53:10;;;;;;;;;0.67;0.33;;;;;;;;5096524;27;45387;-75
2022/08/20 04:55:38;;;;;;;;;1.00;1.00;;;;;;;;5095540;27;46399;-75
2022/08/20 04:58:04;;;;;;;;;2.00;0.33;;;;;;;;5096432;27;45364;-75
2022/08/20 05:00:30;;;;;;;;;0.67;0.33;;;;;;;;5096168;27;45567;-75
2022/08/20 05:02:55;;;;;;;;;1.00;1.00;;;;;;;;5082845;27;45305;-75
2022/08/20 05:05:21;;;;;;;;;0.00;0.00;;;;;;;;5075975;27;46253;-75
2022/08/20 05:07:46;;;;;;;;;0.00;0.00;;;;;;;;5076160;28;45409;-75
2022/08/20 05:10:13;;;;;;;;;0.00;0.00;;;;;;;;5076154;27;45630;-75
2022/08/20 05:12:40;;;;;;;;;2.00;1.00;;;;;;;;5075426;28;45446;-75
2022/08/20 05:15:05;;;;;;;;;0.00;0.00;;;;;;;;5075730;27;47321;-75
2022/08/20 05:17:31;;;;;;;;;1.00;1.00;;;;;;;;5075171;28;45246;-75
2022/08/20 05:19:58;;;;;;;;;0.33;0.33;;;;;;;;5076049;27;45237;-75
2022/08/20 05:22:23;;;;;;;;;0.00;0.00;;;;;;;;5075501;27;45510;-73
2022/08/20 05:24:48;;;;;;;;;0.00;0.00;;;;;;;;5075549;27;46196;-76
2022/08/20 05:27:15;;;;;;;;;0.00;0.00;;;;;;;;5075975;28;45426;-75
2022/08/20 05:29:40;;;;;;;;;1.00;1.00;;;;;;;;5075846;27;45423;-75
2022/08/20 05:32:06;;;;;;;;;0.00;0.00;;;;;;;;5075279;28;45327;-75
2022/08/20 05:34:31;;;;;;;;;0.00;0.00;;;;;;;;5075439;28;45537;-75
2022/08/20 05:36:57;;;;;;;;;1.00;1.00;;;;;;;;5075513;27;45443;-76
2022/08/20 05:39:22;;;;;;;;;0.67;0.67;;;;;;;;5075825;28;45463;-75
2022/08/20 05:41:49;;;;;;;;;4.00;1.00;;;;;;;;5075686;28;45404;-77
2022/08/20 05:44:15;;;;;;;;;1.67;0.33;;;;;;;;5066508;28;47557;-75
2022/08/20 05:46:42;;;;;;;;;1.00;1.00;;;;;;;;5069231;28;45461;-75
2022/08/20 05:49:08;;;;;;;;;1.67;1.67;;;;;;;;5075741;27;45381;-75
2022/08/20 05:51:35;;;;;;;;;3.00;2.00;;;;;;;;5074931;28;45360;-75
2022/08/20 05:54:02;;;;;;;;;0.00;0.00;;;;;;;;5075270;28;46130;-74
2022/08/20 05:56:29;;;;;;;;;0.00;0.00;;;;;;;;5075175;27;45430;-74
2022/08/20 05:58:54;;;;;;;;;1.00;1.00;;;;;;;;5074969;27;45301;-74
2022/08/20 06:01:19;;;;;;;;;0.67;0.67;;;;;;;;5075065;28;45316;-74
2022/08/20 06:06:29;;;;;;;;;0.00;0.00;;;;;;;;5085983;27;45536;-76
2022/08/20 06:08:55;;;;;;;;;1.33;0.00;;;;;;;;5098813;27;45240;-75
2022/08/20 06:11:21;;;;;;;;;0.00;0.00;;;;;;;;5099094;27;45524;-74
2022/08/20 06:13:47;;;;;;;;;0.00;0.00;;;;;;;;5099028;27;45340;-75
2022/08/20 06:16:12;;;;;;;;;0.00;0.00;;;;;;;;5098241;27;45455;-75
2022/08/20 06:18:37;;;;;;;;;1.00;1.00;;;;;;;;5098939;27;45396;-74
2022/08/20 06:21:02;;;;;;;;;0.33;0.33;;;;;;;;5098777;27;45380;-75
2022/08/20 06:23:27;;;;;;;;;0.00;0.00;;;;;;;;5098798;27;45434;-75
2022/08/20 06:25:53;;;;;;;;;0.00;0.00;;;;;;;;5099061;27;45280;-75
2022/08/20 06:28:18;;;;;;;;;1.00;1.00;;;;;;;;5098775;27;45317;-75
2022/08/20 06:30:43;;;;;;;;;2.33;0.67;;;;;;;;5098785;27;45486;-74
2022/08/20 06:33:09;;;;;;;;;0.00;0.00;;;;;;;;5098672;27;47488;-74
2022/08/20 06:35:36;;;;;;;;;1.33;1.33;;;;;;;;5098548;27;45455;-74
2022/08/20 06:38:02;;;;;;;;;0.00;0.00;;;;;;;;5099011;27;45331;-75
2022/08/20 06:40:28;;;;;;;;;0.00;0.00;;;;;;;;5098745;27;45384;-74
2022/08/20 06:42:53;;;;;;;;;1.00;1.00;;;;;;;;5098214;27;46118;-75
2022/08/20 06:45:23;;;;;;;;;3.00;0.67;;;;;;;;5098467;27;45520;-75
2022/08/20 06:47:48;;;;;;;;;1.00;0.67;;;;;;;;5098422;27;45494;-75
2022/08/20 06:50:16;;;;;;;;;0.33;0.33;;;;;;;;5097977;27;45440;-75
2022/08/20 06:52:42;;;;;;;;;1.00;1.00;;;;;;;;5098136;27;48631;-74
2022/08/20 06:55:09;;;;;;;;;0.67;0.67;;;;;;;;5098268;27;45370;-74
2022/08/20 06:57:34;;;;;;;;;4.67;1.33;;;;;;;;5098624;27;45312;-75
2022/08/20 06:59:59;;;;;;;;;0.67;0.67;;;;;;;;5097892;27;45332;-75
2022/08/20 07:02:25;;;;;;;;;2.33;1.00;;;;;;;;5089157;27;46141;-75
2022/08/20 07:04:50;;;;;;;;;0.00;0.00;;;;;;;;5078041;28;45357;-75
2022/08/20 07:07:16;;;;;;;;;0.33;0.33;;;;;;;;5077741;28;45341;-76
2022/08/20 07:09:42;;;;;;;;;1.00;1.00;;;;;;;;5077664;27;45223;-76
2022/08/20 07:12:08;;;;;;;;;1.00;1.00;;;;;;;;5077592;27;45288;-73
2022/08/20 07:14:34;;;;;;;;;0.33;0.33;;;;;;;;5077300;27;45553;-76
2022/08/20 07:17:01;;;;;;;;;0.67;0.67;;;;;;;;5077645;27;45470;-76
2022/08/20 07:19:26;;;;;;;;;0.67;0.33;;;;;;;;5058576;27;45442;-74
2022/08/20 07:21:52;;;;;;;;;0.33;0.00;;;;;;;;5077539;27;45917;-75
2022/08/20 07:24:17;;;;;;;;;0.00;0.00;;;;;;;;5077440;27;45316;-75
2022/08/20 07:26:42;;;;;;;;;1.00;1.00;;;;;;;;5077285;27;45351;-75
2022/08/20 07:29:07;;;;;;;;;0.00;0.00;;;;;;;;5077958;27;45398;-75
2022/08/20 07:34:17;;;;;;;;;0.00;0.00;;;;;;;;5077500;27;45367;-75
2022/08/20 07:36:42;;;;;;;;;2.00;1.00;;;;;;;;5077061;27;45374;-74
2022/08/20 07:39:08;;;;;;;;;0.33;0.33;;;;;;;;5077529;27;45428;-76
2022/08/20 07:41:33;;;;;;;;;0.67;0.67;;;;;;;;5076754;27;46864;-75
2022/08/20 07:43:58;;;;;;;;;1.33;0.00;;;;;;;;5077237;27;45501;-76
2022/08/20 07:46:23;;;;;;;;;0.67;0.67;;;;;;;;5077086;27;45419;-75
2022/08/20 07:48:50;;;;;;;;;1.00;1.00;;;;;;;;5076947;27;45470;-76
2022/08/20 07:51:18;;;;;;;;;0.00;0.00;;;;;;;;5076927;27;46095;-75
2022/08/20 07:53:45;;;;;;;;;0.33;0.33;;;;;;;;5077066;27;45317;-75
2022/08/20 07:56:12;;;;;;;;;0.00;0.00;;;;;;;;5076659;27;45287;-76
2022/08/20 07:58:38;;;;;;;;;1.00;0.00;;;;;;;;5076858;27;45386;-76
2022/08/20 08:01:04;;;;;;;;;0.00;0.00;;;;;;;;5076796;27;45314;-76
2022/08/20 08:03:30;;;;;;;;;1.00;1.00;;;;;;;;5076429;27;45320;-75
2022/08/20 08:05:56;;;;;;;;;0.67;0.67;;;;;;;;5077028;27;45387;-76
2022/08/20 08:08:22;;;;;;;;;0.33;0.33;;;;;;;;5076753;27;45253;-76
2022/08/20 08:10:50;;;;;;;;;0.00;0.00;;;;;;;;5076292;28;45320;-75
2022/08/20 08:13:15;;;;;;;;;2.00;1.00;;;;;;;;5076303;28;45450;-75
2022/08/20 08:15:43;;;;;;;;;2.33;0.00;;;;;;;;5076763;27;45733;-76
2022/08/20 08:18:12;;;;;;;;;1.33;1.00;;;;;;;;5076636;27;45363;-74
2022/08/20 08:20:40;;;;;;;;;0.00;0.00;;;;;;;;5076197;27;45347;-75
2022/08/20 08:23:12;;;;;;;;;0.00;0.00;;;;;;;;5076528;28;45316;-76
2022/08/20 08:25:38;;;;;;;;;0.33;0.33;;;;;;;;5076132;28;45310;-75
2022/08/20 08:28:04;;;;;;;;;0.00;0.00;;;;;;;;5076388;27;45620;-75
2022/08/20 08:30:30;;;;;;;;;0.33;0.33;;;;;;;;5075245;27;46201;-75
2022/08/20 08:35:39;;;;;;;;;1.00;0.00;;;;;;;;5076470;27;45403;-74
2022/08/20 08:38:04;;;;;;;;;3.67;0.67;;;;;;;;5076295;28;45393;-75
2022/08/20 08:40:30;;;;;;;;;0.00;0.00;;;;;;;;5075738;27;47109;-74
2022/08/20 08:42:58;;;;;;;;;0.00;0.00;;;;;;;;5076284;27;45532;-75
2022/08/20 08:45:26;;;;;;;;;1.00;1.00;;;;;;;;5075936;27;45559;-75
2022/08/20 08:47:53;;;;;;;;;0.67;0.67;;;;;;;;5076153;28;45337;-75
2022/08/20 08:50:24;;;;;;;;;1.00;0.00;;;;;;;;5075992;27;46208;-75
2022/08/20 08:52:53;;;;;;;;;1.67;1.00;;;;;;;;5076111;28;45214;-75
2022/08/20 08:55:19;;;;;;;;;0.00;0.00;;;;;;;;5075969;27;45382;-76
2022/08/20 08:57:46;;;;;;;;;3.00;1.67;;;;;;;;5076189;27;45373;-75
2022/08/20 09:00:15;;;;;;;;;1.00;0.00;;;;;;;;5075628;27;46013;-76
2022/08/20 09:02:51;;;;;;;;;0.00;0.00;;;;;;;;5075900;27;45344;-75
2022/08/20 09:05:19;;;;;;;;;0.67;0.00;;;;;;;;5076043;28;45372;-75
2022/08/20 09:07:47;;;;;;;;;1.67;0.00;;;;;;;;5075910;28;45450;-75
2022/08/20 09:10:13;;;;;;;;;0.67;0.67;;;;;;;;5075334;28;46700;-74
2022/08/20 09:12:38;;;;;;;;;0.00;0.00;;;;;;;;5075567;28;45494;-75
2022/08/20 09:15:04;;;;;;;;;0.00;0.00;;;;;;;;5075770;28;45378;-75
2022/08/20 09:17:29;;;;;;;;;0.33;0.33;;;;;;;;5075237;27;45599;-74
2022/08/20 09:19:54;;;;;;;;;0.00;0.00;;;;;;;;5075653;27;45934;-75
2022/08/20 09:22:21;;;;;;;;;2.67;0.00;;;;;;;;5075893;27;45407;-74
2022/08/20 09:24:46;;;;;;;;;0.00;0.00;;;;;;;;5075344;28;45404;-74
2022/08/20 09:27:12;;;;;;;;;0.00;0.00;;;;;;;;5076073;27;45273;-75
2022/08/20 09:29:37;;;;;;;;;0.00;0.00;;;;;;;;5075707;27;46380;-75
2022/08/20 09:32:21;;;;;;;;;0.00;0.00;;;;;;;;5075555;28;45962;-75
2022/08/20 09:34:50;;;;;;;;;0.00;0.00;;;;;;;;5075736;27;45332;-75
2022/08/20 09:37:16;;;;;;;;;0.00;0.00;;;;;;;;5075083;28;45388;-75
2022/08/20 09:39:42;;;;;;;;;0.00;0.00;;;;;;;;5075298;28;45392;-74
2022/08/20 09:42:07;;;;;;;;;0.00;0.00;;;;;;;;5076917;27;45344;-75
2022/08/20 09:44:32;;;;;;;;;0.33;0.33;;;;;;;;5079155;27;45314;-74
2022/08/20 09:46:58;;;;;;;;;0.00;0.00;;;;;;;;5078708;27;45534;-75
2022/08/20 09:49:23;;;;;;;;;0.33;0.33;;;;;;;;5079432;27;45543;-76
2022/08/20 09:51:48;;;;;;;;;0.00;0.00;;;;;;;;5078613;27;45560;-76
2022/08/20 09:54:13;;;;;;;;;1.67;1.67;;;;;;;;5079376;28;45410;-75
2022/08/20 09:56:39;;;;;;;;;1.67;0.00;;;;;;;;5079377;27;45333;-75
2022/08/20 09:59:04;;;;;;;;;1.00;1.00;;;;;;;;5078935;27;46112;-76
2022/08/20 10:01:30;;;;;;;;;1.00;1.00;;;;;;;;5079006;27;45654;-76
2022/08/20 10:03:55;;;;;;;;;1.00;1.00;;;;;;;;5078561;27;45218;-76
2022/08/20 10:06:21;;;;;;;;;1.00;1.00;;;;;;;;5078714;27;45509;-76
2022/08/20 10:08:46;;;;;;;;;1.00;0.67;;;;;;;;5078863;27;45324;-76
2022/08/20 10:11:12;;;;;;;;;0.33;0.33;;;;;;;;5078929;27;45390;-76
2022/08/20 10:13:37;;;;;;;;;0.00;0.00;;;;;;;;5079074;27;45305;-76
2022/08/20 10:16:02;;;;;;;;;0.67;0.00;;;;;;;;5078799;27;45259;-75
2022/08/20 10:18:28;;;;;;;;;0.00;0.00;;;;;;;;5078344;27;46036;-76
2022/08/20 10:20:53;;;;;;;;;0.00;0.00;;;;;;;;5059911;28;45391;-75
2022/08/20 10:23:18;;;;;;;;;0.00;0.00;;;;;;;;5078749;27;45306;-75
2022/08/20 10:25:43;;;;;;;;;2.00;0.00;;;;;;;;5078814;27;45271;-76
2022/08/20 10:28:08;;;;;;;;;0.00;0.00;;;;;;;;5078159;27;46036;-74
2022/08/20 10:30:34;;;;;;;;;1.00;1.00;;;;;;;;5078621;27;45230;-75
2022/08/20 10:32:59;;;;;;;;;1.00;1.00;;;;;;;;5060417;28;45391;-75
2022/08/20 10:35:25;;;;;;;;;1.00;0.00;;;;;;;;5077550;27;45518;-75
2022/08/20 10:37:50;;;;;;;;;1.00;1.00;;;;;;;;5078330;27;45273;-74
2022/08/20 10:40:15;;;;;;;;;0.67;0.00;;;;;;;;5078129;27;45355;-75
2022/08/20 10:42:42;;;;;;;;;0.67;0.00;;;;;;;;5078450;27;45403;-75
2022/08/20 10:45:08;;;;;;;;;1.00;1.00;;;;;;;;5077839;27;45755;-74
2022/08/20 10:47:33;;;;;;;;;0.67;0.67;;;;;;;;5077871;27;46430;-75
2022/08/20 10:50:00;;;;;;;;;0.00;0.00;;;;;;;;5077710;28;45388;-75
2022/08/20 10:52:26;;;;;;;;;0.33;0.00;;;;;;;;5078106;27;45475;-75
2022/08/20 10:54:51;;;;;;;;;0.00;0.00;;;;;;;;5077260;27;45415;-74
2022/08/20 10:57:18;;;;;;;;;0.33;0.33;;;;;;;;5077567;27;46175;-74
2022/08/20 10:59:45;;;;;;;;;0.33;0.33;;;;;;;;5077826;27;45394;-75
2022/08/20 11:02:10;;;;;;;;;0.67;0.00;;;;;;;;5077481;27;45594;-74
2022/08/20 11:04:35;;;;;;;;;1.00;1.00;;;;;;;;5077507;27;45421;-75
2022/08/20 11:07:10;;;;;;;;;1.00;1.00;;;;;;;;5077780;27;46067;-74
2022/08/20 11:09:35;;;;;;;;;0.67;0.67;;;;;;;;5073164;27;45526;-75
2022/08/20 11:12:00;;;;;;;;;0.00;0.00;;;;;;;;5077891;28;45388;-75
2022/08/20 11:14:25;;;;;;;;;0.00;0.00;;;;;;;;5077394;27;45315;-75
2022/08/20 11:16:50;;;;;;;;;0.00;0.00;;;;;;;;5077228;28;46293;-75
2022/08/20 11:19:15;;;;;;;;;0.67;0.33;;;;;;;;5077628;27;45458;-75
2022/08/20 11:21:41;;;;;;;;;0.00;0.00;;;;;;;;5077620;27;45374;-75
2022/08/20 11:24:06;;;;;;;;;0.00;0.00;;;;;;;;5077640;27;45368;-74
2022/08/20 11:26:31;;;;;;;;;1.00;0.67;;;;;;;;5077444;27;46464;-74
2022/08/20 11:28:56;;;;;;;;;1.00;1.00;;;;;;;;5077711;27;45387;-75
2022/08/20 11:31:21;;;;;;;;;0.00;0.00;;;;;;;;5077850;27;45468;-75
2022/08/20 11:33:47;;;;;;;;;1.00;1.00;;;;;;;;5077113;27;45867;-74
2022/08/20 11:36:12;;;;;;;;;0.00;0.00;;;;;;;;5077031;28;45512;-75
2022/08/20 11:38:37;;;;;;;;;0.00;0.00;;;;;;;;5077493;27;45538;-75
2022/08/20 11:41:02;;;;;;;;;0.00;0.00;;;;;;;;5077316;28;45372;-75
2022/08/20 11:43:27;;;;;;;;;0.00;0.00;;;;;;;;5077111;27;45360;-75
2022/08/20 11:45:54;;;;;;;;;0.00;0.00;;;;;;;;5077255;27;45363;-75
2022/08/20 11:48:19;;;;;;;;;2.00;0.67;;;;;;;;5076540;27;46389;-75
2022/08/20 11:50:45;;;;;;;;;0.33;0.00;;;;;;;;5063244;27;45533;-74
2022/08/20 11:53:11;;;;;;;;;0.33;0.33;;;;;;;;5077410;27;45514;-75
2022/08/20 11:55:36;;;;;;;;;2.00;0.00;;;;;;;;5077057;27;45379;-74
2022/08/20 11:58:01;;;;;;;;;0.00;0.00;;;;;;;;5076944;27;45457;-75
2022/08/20 12:00:28;;;;;;;;;0.00;0.00;;;;;;;;5077066;27;45359;-74
2022/08/20 12:02:53;;;;;;;;;0.00;0.00;;;;;;;;5076807;27;45538;-75
2022/08/20 12:05:18;;;;;;;;;1.00;0.33;;;;;;;;5076569;27;45390;-75
2022/08/20 12:07:43;;;;;;;;;0.00;0.00;;;;;;;;5076876;28;45436;-74
2022/08/20 12:10:09;;;;;;;;;1.33;0.00;;;;;;;;5059013;28;45365;-75
2022/08/20 12:12:37;;;;;;;;;0.00;0.00;;;;;;;;5076343;27;45371;-75
2022/08/20 12:15:02;;;;;;;;;0.67;0.67;;;;;;;;5076595;28;46198;-74
2022/08/20 12:17:28;;;;;;;;;0.00;0.00;;;;;;;;5076109;27;45764;-74
2022/08/20 12:19:56;;;;;;;;;0.00;0.00;;;;;;;;5076659;27;45638;-74
2022/08/20 12:22:21;;;;;;;;;0.00;0.00;;;;;;;;5076653;27;45285;-75
2022/08/20 12:24:46;;;;;;;;;0.33;0.33;;;;;;;;5076315;27;46146;-76
2022/08/20 12:27:14;;;;;;;;;1.00;1.00;;;;;;;;5076540;28;45434;-74
2022/08/20 12:29:40;;;;;;;;;2.00;0.00;;;;;;;;5076463;27;45511;-74
2022/08/20 12:32:06;;;;;;;;;1.67;1.00;;;;;;;;5076243;28;45466;-74
2022/08/20 12:34:35;;;;;;;;;0.00;0.00;;;;;;;;5076531;27;45778;-75
2022/08/20 12:37:01;;;;;;;;;0.00;0.00;;;;;;;;5057623;28;45529;-74
2022/08/20 12:39:30;;;;;;;;;0.00;0.00;;;;;;;;5076115;27;45309;-75
2022/08/20 12:41:55;;;;;;;;;1.00;1.00;;;;;;;;5076427;27;45483;-75
2022/08/20 12:44:20;;;;;;;;;1.00;1.00;;;;;;;;5076202;28;45469;-76
2022/08/20 12:46:45;;;;;;;;;0.67;0.67;;;;;;;;5077423;27;45432;-74
2022/08/20 12:49:11;;;;;;;;;0.00;0.00;;;;;;;;5076103;27;45366;-76
2022/08/20 12:51:36;;;;;;;;;0.33;0.33;;;;;;;;5076440;27;45310;-75
2022/08/20 12:54:01;;;;;;;;;3.50;0.00;;;;;;;;5075960;27;46361;-74
2022/08/20 12:56:26;;;;;;;;;0.67;0.00;;;;;;;;5075864;28;45393;-75
2022/08/20 12:58:51;;;;;;;;;0.00;0.00;;;;;;;;5076348;27;45402;-75
2022/08/20 13:01:17;;;;;;;;;1.00;1.00;;;;;;;;5075689;27;45483;-75
2022/08/20 13:03:42;;;;;;;;;0.33;0.33;;;;;;;;5075872;27;45466;-74
2022/08/20 13:06:07;;;;;;;;;4.00;1.00;;;;;;;;5075856;27;45347;-74
2022/08/20 13:08:32;;;;;;;;;0.00;0.00;;;;;;;;5076200;28;45410;-76
2022/08/20 13:10:58;;;;;;;;;2.00;0.00;;;;;;;;5075813;27;45293;-75
2022/08/20 13:13:23;;;;;;;;;0.67;0.33;;;;;;;;5075689;27;45316;-74
2022/08/20 13:15:49;;;;;;;;;0.00;0.00;;;;;;;;5075174;27;45339;-73
2022/08/20 13:18:14;;;;;;;;;0.00;0.00;;;;;;;;5075586;28;45360;-73
2022/08/20 13:20:40;;;;;;;;;1.00;1.00;;;;;;;;5075985;27;45395;-74
2022/08/20 13:23:05;;;;;;;;;1.33;0.00;;;;;;;;5075562;27;46213;-74
2022/08/20 13:25:31;;;;;;;;;1.00;1.00;;;;;;;;5075601;27;45387;-74
2022/08/20 13:27:57;;;;;;;;;1.00;1.00;;;;;;;;5075922;27;45280;-74
2022/08/20 13:30:23;;;;;;;;;0.00;0.00;;;;;;;;5075663;27;45317;-75
2022/08/20 13:32:48;;;;;;;;;1.67;0.67;;;;;;;;5075222;27;45360;-74
2022/08/20 13:35:14;;;;;;;;;1.00;1.00;;;;;;;;5075429;27;45387;-74
2022/08/20 13:37:39;;;;;;;;;1.00;1.00;;;;;;;;5075699;27;45667;-74
2022/08/20 13:40:07;;;;;;;;;0.00;0.00;;;;;;;;5075412;27;45494;-73
2022/08/20 13:42:32;;;;;;;;;0.00;0.00;;;;;;;;5075238;27;47143;-75
2022/08/20 13:44:57;;;;;;;;;0.00;0.00;;;;;;;;5075127;27;45537;-74
2022/08/20 13:47:24;;;;;;;;;1.00;1.00;;;;;;;;5075370;28;45367;-74
2022/08/20 13:49:54;;;;;;;;;1.00;1.00;;;;;;;;5075630;27;45515;-75
2022/08/20 13:52:19;;;;;;;;;0.00;0.00;;;;;;;;5075196;27;46274;-75
2022/08/20 13:54:44;;;;;;;;;2.00;0.67;;;;;;;;5075463;27;45336;-74
2022/08/20 13:57:12;;;;;;;;;0.33;0.33;;;;;;;;5075270;27;45411;-74
2022/08/20 13:59:39;;;;;;;;;0.33;0.33;;;;;;;;5074893;27;45312;-73
2022/08/20 14:02:05;;;;;;;;;1.00;0.00;;;;;;;;5074916;27;45482;-74
2022/08/20 14:04:30;;;;;;;;;1.00;1.00;;;;;;;;5075161;27;45218;-75
2022/08/20 14:06:55;;;;;;;;;2.00;0.50;;;;;;;;5075252;27;45684;-74
2022/08/20 14:09:21;;;;;;;;;0.00;0.00;;;;;;;;5075035;27;45461;-74
2022/08/20 14:11:46;;;;;;;;;0.00;0.00;;;;;;;;5075151;28;45308;-75
2022/08/20 14:14:11;;;;;;;;;0.33;0.33;;;;;;;;5074548;28;45277;-74
2022/08/20 14:16:38;;;;;;;;;0.00;0.00;;;;;;;;5075413;27;45471;-74
2022/08/20 14:19:03;;;;;;;;;1.33;0.00;;;;;;;;5075305;27;45458;-74
2022/08/20 14:21:29;;;;;;;;;0.67;0.67;;;;;;;;5074362;27;46324;-74
2022/08/20 14:23:54;;;;;;;;;2.00;1.00;;;;;;;;5075258;28;45763;-74
2022/08/20 14:26:19;;;;;;;;;1.00;1.00;;;;;;;;5074976;28;45461;-74
2022/08/20 14:28:44;;;;;;;;;0.00;0.00;;;;;;;;5077347;27;45464;-74
2022/08/20 14:31:09;;;;;;;;;1.00;1.00;;;;;;;;5078409;27;45439;-74
2022/08/20 14:33:35;;;;;;;;;1.00;0.00;;;;;;;;5078420;27;45957;-74
2022/08/20 14:36:00;;;;;;;;;0.00;0.00;;;;;;;;5078175;27;45449;-74
2022/08/20 14:38:25;;;;;;;;;0.67;0.33;;;;;;;;5078193;27;45450;-74
2022/08/20 14:40:50;;;;;;;;;0.00;0.00;;;;;;;;5078042;27;46079;-74
2022/08/20 14:43:16;;;;;;;;;0.67;0.67;;;;;;;;5077681;27;45422;-74
2022/08/20 14:45:41;;;;;;;;;1.67;0.67;;;;;;;;5078009;27;45462;-74
2022/08/20 14:48:07;;;;;;;;;1.00;1.00;;;;;;;;5077980;27;45763;-73